Time;durP1;ratioP1;P1;durP2;ratioP2;P2;SDS_P1;SDS_P2;PMS_P1;PMS_P2;Temp;Humidity;BMP_temperature;BMP_pressure;BME280_temperature;BME280_humidity;BME280_pressure;Samples;Min_cycle;Max_cycle;Signal;HPM_P1;HPM_P2
2024/04/12 00:01:42;;;;;;;6.53;2.10;;;;;;;12.63;59.48;100260.47;5417734;26;20458;-47
2024/04/12 00:04:15;;;;;;;6.72;2.25;;;;;;;12.50;59.76;100247.91;5417210;26;20000;-47
2024/04/12 00:06:43;;;;;;;5.45;2.67;;;;;;;12.50;61.37;100248.72;5417644;26;20014;-47
2024/04/12 00:09:09;;;;;;;6.47;2.17;;;;;;;12.49;60.45;100251.50;5417579;26;20010;-47
2024/04/12 00:11:39;;;;;;;7.20;3.47;;;;;;;12.37;59.93;100251.09;5417472;26;20445;-47
2024/04/12 00:14:05;;;;;;;7.57;2.50;;;;;;;12.23;60.90;100252.63;5416034;26;20000;-46
2024/04/12 00:16:31;;;;;;;7.22;2.50;;;;;;;12.27;61.03;100247.84;5417387;26;20000;-46
2024/04/12 00:19:12;;;;;;;6.60;2.13;;;;;;;12.14;60.92;100251.88;5417664;26;20080;-47
2024/04/12 00:21:41;;;;;;;4.45;2.00;;;;;;;12.22;61.63;100252.81;5417322;26;20012;-47
2024/04/12 00:24:11;;;;;;;9.75;2.58;;;;;;;12.38;61.66;100255.38;5415751;26;19999;-46
2024/04/12 00:26:46;;;;;;;7.03;2.40;;;;;;;12.51;60.88;100252.97;5415514;26;20008;-47
2024/04/12 00:30:03;;;;;;;6.88;3.55;;;;;;;12.50;60.26;100240.81;5416882;26;20466;-46
2024/04/12 00:32:03;;;;;;;7.38;2.83;;;;;;;12.45;60.20;100240.50;5410533;26;20531;-47
2024/04/12 00:34:39;;;;;;;8.90;2.78;;;;;;;12.35;60.20;100237.28;5417210;26;20369;-47
2024/04/12 00:37:15;;;;;;;8.60;2.58;;;;;;;12.11;60.19;100241.69;5415395;26;20003;-47
2024/04/12 00:39:47;;;;;;;12.95;2.88;;;;;;;11.94;60.93;100234.84;5417092;26;19999;-46
2024/04/12 00:42:14;;;;;;;4.65;2.10;;;;;;;11.51;61.83;100234.28;5417322;26;20004;-47
2024/04/12 00:44:42;;;;;;;8.57;2.83;;;;;;;11.51;63.70;100237.75;5417098;26;20003;-47
2024/04/12 00:47:15;;;;;;;7.18;2.10;;;;;;;11.63;63.57;100245.28;5416932;26;20076;-47
2024/04/12 00:49:54;;;;;;;7.80;2.28;;;;;;;11.71;62.93;100239.97;5415242;26;20014;-47
2024/04/12 00:52:26;;;;;;;6.97;2.30;;;;;;;11.57;62.98;100246.78;5416902;26;20475;-47
2024/04/12 00:55:03;;;;;;;28.63;25.70;;;;;;;11.57;63.98;100239.72;5417035;26;20007;-47
2024/04/12 00:57:40;;;;;;;14.90;8.35;;;;;;;11.76;63.32;100245.56;5416773;26;20007;-47
2024/04/12 01:00:08;;;;;;;21.77;12.45;;;;;;;11.64;62.74;100249.56;5414970;26;19999;-47
2024/04/12 01:02:39;;;;;;;9.40;6.10;;;;;;;11.60;63.19;100242.00;5416744;26;20438;-47
2024/04/12 01:05:08;;;;;;;13.98;4.00;;;;;;;11.63;63.76;100245.28;5416806;26;20039;-47
2024/04/12 01:07:36;;;;;;;14.90;7.63;;;;;;;11.64;62.87;100241.66;5416658;26;19999;-47
2024/04/12 01:10:06;;;;;;;44.58;31.08;;;;;;;11.65;64.11;100238.88;5417029;26;20003;-47
2024/04/12 01:12:32;;;;;;;17.27;12.45;;;;;;;11.77;63.47;100232.25;5416611;26;20000;-47
2024/04/12 01:14:58;;;;;;;11.73;5.68;;;;;;;11.76;63.13;100237.69;5414572;26;20015;-47
2024/04/12 01:17:24;;;;;;;17.48;9.85;;;;;;;11.57;62.89;100239.72;5414030;26;20014;-47
2024/04/12 01:19:53;;;;;;;11.45;7.78;;;;;;;11.37;63.86;100238.44;5416617;26;20361;-47
2024/04/12 01:22:18;;;;;;;21.75;19.48;;;;;;;11.16;64.36;100236.31;5416341;26;20004;-47
2024/04/12 01:24:45;;;;;;;12.38;5.82;;;;;;;10.97;64.67;100233.06;5416508;26;20003;-47
2024/04/12 01:27:11;;;;;;;16.20;13.48;;;;;;;10.90;65.36;100239.13;5414601;26;20004;-49
2024/04/12 01:29:37;;;;;;;22.45;18.42;;;;;;;11.02;65.76;100237.81;5416033;26;20522;-50
2024/04/12 01:32:04;;;;;;;13.20;9.07;;;;;;;11.16;66.11;100237.13;5385551;26;19999;-49
2024/04/12 01:34:31;;;;;;;12.35;6.35;;;;;;;11.22;66.09;100240.91;5414723;26;20004;-49
2024/04/12 01:37:00;;;;;;;8.65;4.70;;;;;;;11.28;65.75;100239.44;5414918;26;20003;-49
2024/04/12 01:39:28;;;;;;;22.13;4.53;;;;;;;11.30;66.00;100240.91;5416450;26;19999;-49
2024/04/12 01:41:54;;;;;;;11.73;9.55;;;;;;;11.31;65.62;100234.66;5416459;26;19999;-49
2024/04/12 01:44:24;;;;;;;32.13;28.67;;;;;;;11.30;65.48;100240.09;5414716;26;20015;-49
2024/04/12 01:46:52;;;;;;;21.58;15.90;;;;;;;11.18;64.87;100236.97;5416372;26;20017;-49
2024/04/12 01:49:22;;;;;;;12.23;9.27;;;;;;;11.15;65.39;100229.44;5416248;26;20018;-49
2024/04/12 01:51:48;;;;;;;5.60;3.15;;;;;;;11.14;65.70;100231.22;5416288;26;20000;-49
2024/04/12 01:54:17;;;;;;;8.75;2.65;;;;;;;11.16;65.34;100234.50;5416243;26;20010;-49
2024/04/12 01:56:47;;;;;;;7.15;2.72;;;;;;;11.13;65.02;100240.09;5416079;26;20014;-49
2024/04/12 01:59:22;;;;;;;10.30;4.80;;;;;;;11.09;65.31;100245.88;5416210;26;20088;-49
2024/04/12 02:01:52;;;;;;;6.93;2.42;;;;;;;11.03;65.40;100238.63;5414367;26;20080;-49
2024/04/12 02:04:20;;;;;;;5.13;2.63;;;;;;;11.22;65.49;100237.47;5416114;26;20003;-49
2024/04/12 02:06:48;;;;;;;7.55;2.50;;;;;;;11.46;64.36;100242.69;5415973;26;20014;-49
2024/04/12 02:09:14;;;;;;;12.73;2.83;;;;;;;11.58;64.39;100240.53;5415630;26;20461;-49
2024/04/12 02:11:47;;;;;;;5.82;2.80;;;;;;;11.90;64.27;100242.25;5415590;26;20004;-49
2024/04/12 02:14:13;;;;;;;6.60;2.70;;;;;;;12.03;62.87;100236.44;5415564;26;20014;-49
2024/04/12 02:16:42;;;;;;;6.95;2.47;;;;;;;11.90;62.63;100237.00;5413736;26;20019;-49
2024/04/12 02:19:12;;;;;;;8.25;2.50;;;;;;;11.82;62.58;100237.00;5413647;26;20010;-49
2024/04/12 02:21:40;;;;;;;5.25;2.55;;;;;;;11.67;62.16;100241.31;5415419;26;20068;-49
2024/04/12 02:24:09;;;;;;;8.02;2.70;;;;;;;11.47;63.63;100241.72;5413721;26;20003;-49
2024/04/12 02:26:37;;;;;;;6.38;2.35;;;;;;;11.32;63.77;100238.09;5415960;26;20076;-49
2024/04/12 02:29:04;;;;;;;3.90;1.95;;;;;;;11.10;63.54;100250.13;5418892;26;20373;-49
2024/04/12 02:31:31;;;;;;;6.75;2.55;;;;;;;10.79;64.72;100245.53;5425836;26;20487;-49
2024/04/12 02:33:58;;;;;;;7.68;2.42;;;;;;;10.65;65.79;100246.97;5418883;26;20010;-49
2024/04/12 02:36:30;;;;;;;5.97;2.28;;;;;;;10.56;66.64;100245.31;5419124;26;20003;-49
2024/04/12 02:38:56;;;;;;;5.00;2.85;;;;;;;10.42;66.87;100248.56;5417276;26;20419;-49
2024/04/12 02:41:22;;;;;;;6.55;2.65;;;;;;;10.33;67.78;100247.75;5417015;26;20076;-49
2024/04/12 02:43:51;;;;;;;5.57;2.30;;;;;;;10.29;67.49;100246.38;5418840;26;20000;-49
2024/04/12 02:46:22;;;;;;;6.25;2.63;;;;;;;10.15;67.99;100256.50;5388019;26;19999;-49
2024/04/12 02:48:48;;;;;;;19.17;17.30;;;;;;;10.02;68.93;100253.53;5418754;26;20007;-49
2024/04/12 02:51:18;;;;;;;9.93;3.60;;;;;;;10.03;68.83;100254.34;5418501;26;20526;-49
2024/04/12 02:53:44;;;;;;;5.88;2.72;;;;;;;9.90;68.62;100260.84;5387871;26;20323;-49
2024/04/12 02:56:14;;;;;;;8.15;2.80;;;;;;;9.84;68.95;100269.34;5418519;26;20003;-49
2024/04/12 02:58:51;;;;;;;7.93;3.45;;;;;;;9.80;69.05;100268.81;5416717;26;20333;-49
2024/04/12 03:01:21;;;;;;;7.28;3.22;;;;;;;9.72;69.18;100266.16;5418556;26;20004;-49
2024/04/12 03:03:47;;;;;;;8.02;2.63;;;;;;;9.71;69.63;100269.75;5418605;26;20018;-49
2024/04/12 03:06:13;;;;;;;6.75;2.60;;;;;;;9.56;70.20;100266.06;5418457;26;20003;-49
2024/04/12 03:08:44;;;;;;;4.07;2.60;;;;;;;9.52;70.33;100265.53;5418363;26;20000;-49
2024/04/12 03:11:14;;;;;;;6.78;2.72;;;;;;;9.55;71.05;100267.84;5418243;26;20003;-49
2024/04/12 03:13:43;;;;;;;5.00;2.40;;;;;;;9.55;70.93;100267.84;5418719;26;20319;-49
2024/04/12 03:16:13;;;;;;;7.82;3.13;;;;;;;9.48;71.07;100264.22;5416358;26;20000;-49
2024/04/12 03:18:51;;;;;;;11.27;3.10;;;;;;;9.79;72.04;100264.53;5416405;26;20007;-49
2024/04/12 03:21:26;;;;;;;7.80;2.30;;;;;;;10.22;70.82;100267.19;5416446;26;20341;-49
2024/04/12 03:23:53;;;;;;;6.28;3.85;;;;;;;10.43;69.89;100263.34;5416935;26;20000;-49
2024/04/12 03:26:23;;;;;;;6.03;2.90;;;;;;;10.56;68.62;100264.53;5387021;26;19999;-49
2024/04/12 03:28:54;;;;;;;25.02;16.40;;;;;;;10.51;68.74;100264.19;5418173;26;20007;-49
2024/04/12 03:31:27;;;;;;;9.68;5.03;;;;;;;10.59;68.49;100261.56;5418132;26;20003;-49
2024/04/12 03:33:56;;;;;;;6.90;2.83;;;;;;;10.74;67.50;100258.31;5418658;26;20008;-49
2024/04/12 03:36:28;;;;;;;6.68;3.15;;;;;;;11.00;67.43;100256.34;5417772;26;20003;-49
2024/04/12 03:41:52;;;;;;;7.38;2.90;;;;;;;11.32;65.03;100254.69;5418196;26;20019;-49
2024/04/12 03:44:20;;;;;;;;;;;;;;;11.15;65.05;100261.78;5418613;26;20003;-49
2024/04/12 03:46:50;;;;;;;6.55;3.10;;;;;;;11.03;65.39;100268.34;5417950;26;19931;-49
2024/04/12 03:49:21;;;;;;;10.20;3.53;;;;;;;10.72;64.74;100262.91;5416065;26;20098;-50
2024/04/12 03:51:56;;;;;;;6.63;3.40;;;;;;;10.33;66.19;100256.44;5417944;26;20000;-49
2024/04/12 03:54:24;;;;;;;8.32;3.33;;;;;;;10.09;67.32;100264.19;5418056;26;20429;-49
2024/04/12 03:56:52;;;;;;;8.77;3.20;;;;;;;9.92;68.37;100266.75;5417751;26;20462;-49
2024/04/12 03:59:19;;;;;;;6.78;3.45;;;;;;;9.79;68.65;100264.53;5417834;26;20012;-49
2024/04/12 04:01:48;;;;;;;5.97;3.00;;;;;;;9.67;69.32;100267.59;5415979;26;20010;-49
2024/04/12 04:04:18;;;;;;;11.00;3.20;;;;;;;9.46;69.86;100271.41;5417603;26;20004;-49
2024/04/12 04:06:54;;;;;;;10.38;3.28;;;;;;;9.31;70.78;100270.31;5415874;26;20043;-49
2024/04/12 04:09:25;;;;;;;8.93;2.90;;;;;;;9.21;71.24;100270.41;5417574;26;19999;-49
2024/04/12 04:11:54;;;;;;;10.00;3.33;;;;;;;9.12;71.63;100258.22;5417552;26;20008;-49
2024/04/12 04:14:27;;;;;;;11.20;3.30;;;;;;;9.18;71.88;100255.00;5417452;26;20011;-49
2024/04/12 04:16:55;;;;;;;9.75;4.25;;;;;;;9.19;72.33;100256.63;5417550;26;20018;-49
2024/04/12 04:19:33;;;;;;;8.45;3.50;;;;;;;9.19;72.57;100249.63;5417772;26;19999;-49
2024/04/12 04:22:24;;;;;;;7.05;3.95;;;;;;;9.27;72.33;100251.44;5417386;26;20000;-48
2024/04/12 04:24:53;;;;;;;6.13;3.25;;;;;;;9.14;72.38;100257.09;5417408;26;20007;-49
2024/04/12 04:27:21;;;;;;;11.73;3.17;;;;;;;9.09;72.38;100248.03;5417262;26;20047;-49
2024/04/12 04:29:50;;;;;;;6.00;3.08;;;;;;;9.02;72.60;100254.88;5415136;26;20043;-50
2024/04/12 04:32:16;;;;;;;5.05;2.97;;;;;;;8.94;72.43;100243.34;5415457;26;19999;-49
2024/04/12 04:34:44;;;;;;;11.98;3.40;;;;;;;8.83;72.96;100243.56;5417233;26;20011;-49
2024/04/12 04:37:10;;;;;;;10.43;2.97;;;;;;;8.93;73.70;100241.72;5415377;26;19999;-49
2024/04/12 04:39:35;;;;;;;8.77;2.75;;;;;;;9.08;73.39;100247.22;5415432;26;20011;-49
2024/04/12 04:42:01;;;;;;;9.73;3.33;;;;;;;9.19;72.93;100249.63;5417137;26;20004;-49
2024/04/12 04:44:27;;;;;;;10.68;2.78;;;;;;;9.27;72.79;100245.38;5417083;26;20015;-49
2024/04/12 04:46:54;;;;;;;10.20;3.63;;;;;;;9.26;72.33;100241.13;5415279;26;20015;-49
2024/04/12 04:49:23;;;;;;;10.25;4.90;;;;;;;9.10;72.39;100250.50;5416913;26;20575;-49
2024/04/12 04:51:50;;;;;;;7.35;3.45;;;;;;;9.07;73.18;100236.91;5413833;26;20410;-49
2024/04/12 04:54:19;;;;;;;17.88;4.45;;;;;;;9.28;72.61;100245.25;5417223;26;20011;-49
2024/04/12 04:56:46;;;;;;;10.35;3.42;;;;;;;9.39;71.95;100250.22;5416882;26;20004;-49
2024/04/12 04:59:16;;;;;;;12.93;2.92;;;;;;;9.47;72.10;100248.63;5417182;26;20007;-49
2024/04/12 05:01:48;;;;;;;7.45;2.88;;;;;;;9.50;70.78;100245.72;5416837;26;20010;-49
2024/04/12 05:04:20;;;;;;;8.45;3.47;;;;;;;9.34;70.35;100252.50;5414963;26;20523;-49
2024/04/12 05:06:47;;;;;;;8.32;3.80;;;;;;;9.16;71.07;100255.16;5414871;26;20003;-49
2024/04/12 05:09:18;;;;;;;6.57;3.65;;;;;;;9.14;72.21;100254.47;5414872;26;20000;-49
2024/04/12 05:11:50;;;;;;;11.13;3.22;;;;;;;9.29;72.04;100261.78;5416677;26;20084;-49
2024/04/12 05:17:05;;;;;;;8.90;3.57;;;;;;;9.25;71.14;100270.91;5416776;26;20450;-49
2024/04/12 05:19:32;;;;;;;4.97;2.95;;;;;;;9.34;71.18;100270.00;5416612;26;19999;-49
2024/04/12 05:22:06;;;;;;;8.82;3.53;;;;;;;9.79;70.72;100268.97;5416528;26;20018;-49
2024/04/12 05:24:33;;;;;;;10.80;4.13;;;;;;;10.30;68.78;100266.41;5416590;26;20003;-49
2024/04/12 05:27:04;;;;;;;7.53;2.70;;;;;;;10.82;66.71;100268.00;5416362;26;20003;-49
2024/04/12 05:29:30;;;;;;;11.18;10.02;;;;;;;11.25;64.55;100263.41;5416343;26;20330;-49
2024/04/12 05:32:09;;;;;;;10.05;4.57;;;;;;;11.46;62.80;100261.09;5414366;26;20003;-49
2024/04/12 05:34:45;;;;;;;11.70;4.63;;;;;;;11.57;62.27;100252.03;5416355;26;20006;-49
2024/04/12 05:37:15;;;;;;;14.48;4.25;;;;;;;12.01;61.41;100264.72;5416528;26;20369;-49
2024/04/12 05:39:42;;;;;;;7.00;3.65;;;;;;;12.36;59.76;100260.81;5416473;26;20004;-49
2024/04/12 05:42:09;;;;;;;9.35;3.28;;;;;;;12.87;58.50;100257.66;5414271;26;20531;-49
2024/04/12 05:44:37;;;;;;;7.50;3.33;;;;;;;13.42;56.40;100252.28;5414313;26;20008;-49
2024/04/12 05:47:09;;;;;;;9.98;3.65;;;;;;;13.86;55.50;100248.84;5416203;26;20000;-49
2024/04/12 05:49:36;;;;;;;5.72;4.05;;;;;;;14.56;52.86;100250.91;5416068;26;20011;-49
2024/04/12 05:52:03;;;;;;;11.20;3.40;;;;;;;15.21;51.26;100242.94;5414159;26;20073;-49
2024/04/12 05:54:44;;;;;;;14.00;4.32;;;;;;;15.77;49.84;100236.81;5414211;26;19999;-47
2024/04/12 05:57:13;;;;;;;9.00;3.20;;;;;;;16.27;48.04;100233.97;5416163;26;20333;-45
2024/04/12 05:59:42;;;;;;;5.68;3.20;;;;;;;16.44;46.61;100237.06;5415903;26;20000;-45
2024/04/12 06:02:15;;;;;;;8.25;3.08;;;;;;;15.78;46.91;100233.16;5416882;26;20083;-45
2024/04/12 06:04:46;;;;;;;8.10;3.60;;;;;;;15.10;48.90;100235.56;5419324;26;20000;-45
2024/04/12 06:07:13;;;;;;;10.27;3.15;;;;;;;15.07;49.77;100246.50;5419248;26;20010;-45
2024/04/12 06:09:39;;;;;;;11.43;4.03;;;;;;;15.17;49.78;100250.47;5419155;26;20004;-45
2024/04/12 06:12:06;;;;;;;9.40;2.83;;;;;;;15.44;49.06;100245.34;5419190;26;20466;-45
2024/04/12 06:14:38;;;;;;;8.32;2.88;;;;;;;16.10;48.39;100252.88;5419284;26;20047;-45
2024/04/12 06:17:08;;;;;;;10.27;3.10;;;;;;;16.89;45.46;100259.41;5419172;26;20072;-45
2024/04/12 06:19:37;;;;;;;13.68;2.90;;;;;;;17.37;44.69;100251.22;5419377;26;20085;-45
2024/04/12 06:22:16;;;;;;;8.90;3.67;;;;;;;17.98;43.23;100253.78;5417413;26;20043;-45
2024/04/12 06:24:48;;;;;;;10.85;2.72;;;;;;;18.45;41.54;100243.72;5419147;26;20004;-45
2024/04/12 06:27:16;;;;;;;10.07;3.40;;;;;;;18.72;40.14;100252.38;5418961;26;20022;-45
2024/04/12 06:29:44;;;;;;;8.57;2.80;;;;;;;18.73;40.26;100249.50;5387659;26;20015;-46
2024/04/12 06:32:10;;;;;;;10.25;4.65;;;;;;;18.79;40.58;100250.47;5417403;26;20000;-45
2024/04/12 06:34:41;;;;;;;7.00;2.67;;;;;;;19.04;40.13;100247.03;5417277;26;20000;-45
2024/04/12 06:37:08;;;;;;;7.93;3.67;;;;;;;19.33;40.36;100241.03;5418901;26;20099;-46
2024/04/12 06:39:34;;;;;;;12.10;6.07;;;;;;;19.87;39.56;100243.16;5388201;26;19999;-45
2024/04/12 06:42:05;;;;;;;10.57;3.78;;;;;;;20.66;38.61;100251.97;5419125;26;20442;-45
2024/04/12 06:44:31;;;;;;;10.95;3.22;;;;;;;21.31;36.80;100256.50;5419092;26;20019;-45
2024/04/12 06:47:00;;;;;;;11.95;3.80;;;;;;;21.35;36.34;100246.97;5419040;26;20003;-46
2024/04/12 06:49:27;;;;;;;9.77;3.15;;;;;;;21.50;35.98;100248.38;5417264;26;20393;-46
2024/04/12 06:52:09;;;;;;;17.15;3.95;;;;;;;22.04;36.25;100245.50;5419086;26;20015;-46
2024/04/12 06:54:36;;;;;;;12.38;4.00;;;;;;;22.73;35.88;100253.44;5417537;26;20086;-46
2024/04/12 06:57:06;;;;;;;27.83;4.22;;;;;;;23.57;34.42;100246.44;5418726;26;20000;-46
2024/04/12 06:59:35;;;;;;;10.52;3.20;;;;;;;24.28;32.90;100246.50;5418993;26;20338;-46
2024/04/12 07:02:05;;;;;;;10.70;3.17;;;;;;;25.02;31.47;100245.03;5418833;26;20013;-46
2024/04/12 07:04:32;;;;;;;12.20;3.75;;;;;;;25.98;30.12;100245.84;5417088;26;20533;-46
2024/04/12 07:06:57;;;;;;;7.70;3.00;;;;;;;26.79;28.55;100242.50;5417117;26;20004;-46
2024/04/12 07:09:24;;;;;;;17.13;3.20;;;;;;;27.74;27.03;100235.56;5418676;26;20014;-46
2024/04/12 07:11:51;;;;;;;17.92;4.97;;;;;;;28.52;26.81;100233.31;5418687;26;20079;-46
2024/04/12 07:14:23;;;;;;;11.23;3.20;;;;;;;29.45;25.64;100236.75;5417783;26;20049;-46
2024/04/12 07:16:49;;;;;;;10.50;3.45;;;;;;;29.86;25.09;100238.97;5416796;26;20014;-46
2024/04/12 07:19:18;;;;;;;27.10;4.82;;;;;;;30.50;23.83;100230.53;5418670;26;20004;-46
2024/04/12 07:21:49;;;;;;;21.50;3.95;;;;;;;30.82;23.33;100230.50;5416846;26;19999;-46
2024/04/12 07:24:15;;;;;;;24.02;3.85;;;;;;;31.11;22.90;100224.09;5418514;26;20000;-44
2024/04/12 07:26:42;;;;;;;19.10;5.38;;;;;;;31.31;22.64;100222.88;5418555;26;20007;-45
2024/04/12 07:29:07;;;;;;;10.00;3.08;;;;;;;31.67;22.16;100221.38;5418346;26;20000;-44
2024/04/12 07:31:38;;;;;;;13.40;3.15;;;;;;;31.62;22.07;100220.38;5417941;26;20031;-44
2024/04/12 07:34:05;;;;;;;11.65;3.45;;;;;;;31.47;22.32;100217.16;5418157;26;20438;-44
2024/04/12 07:36:32;;;;;;;12.23;3.53;;;;;;;32.01;21.26;100224.44;5418005;26;20006;-44
2024/04/12 07:39:01;;;;;;;6.10;2.65;;;;;;;32.49;20.98;100216.81;5418022;26;19999;-45
2024/04/12 07:41:48;;;;;;;7.40;2.35;;;;;;;32.86;20.29;100220.25;5417962;26;20003;-44
2024/04/12 07:44:15;;;;;;;12.95;3.70;;;;;;;33.16;20.20;100226.81;5417995;26;20000;-44
2024/04/12 07:46:51;;;;;;;7.35;2.88;;;;;;;33.15;19.89;100230.69;5417813;26;20000;-44
2024/04/12 07:49:18;;;;;;;13.05;3.92;;;;;;;32.97;19.29;100227.84;5417946;26;20000;-44
2024/04/12 07:51:45;;;;;;;10.70;3.20;;;;;;;33.08;19.46;100236.53;5417881;26;20018;-44
2024/04/12 07:54:15;;;;;;;7.85;3.00;;;;;;;33.08;19.78;100239.25;5417697;26;20004;-45
2024/04/12 07:57:07;;;;;;;6.68;2.70;;;;;;;32.73;20.45;100235.56;5417643;26;19999;-45
2024/04/12 07:59:37;;;;;;;19.55;2.83;;;;;;;32.58;20.30;100242.19;5417370;26;20396;-44
2024/04/12 08:02:05;;;;;;;9.13;2.80;;;;;;;32.27;20.78;100248.31;5417717;26;20005;-45
2024/04/12 08:04:38;;;;;;;12.73;5.22;;;;;;;31.80;20.54;100245.78;5416028;26;20000;-44
2024/04/12 08:07:13;;;;;;;12.38;3.25;;;;;;;31.70;20.90;100240.56;5415964;26;20000;-45
2024/04/12 08:09:46;;;;;;;10.77;2.95;;;;;;;32.30;20.85;100242.28;5416026;26;20003;-44
2024/04/12 08:12:17;;;;;;;5.35;2.47;;;;;;;32.61;19.47;100238.84;5417508;26;20018;-44
2024/04/12 08:14:54;;;;;;;9.98;3.22;;;;;;;32.51;19.32;100233.63;5417603;26;20000;-44
2024/04/12 08:17:23;;;;;;;16.65;2.90;;;;;;;32.93;18.86;100240.47;5417525;26;20462;-44
2024/04/12 08:19:55;;;;;;;13.82;3.30;;;;;;;33.01;19.81;100230.75;5417497;26;20193;-44
2024/04/12 08:22:26;;;;;;;13.45;2.83;;;;;;;33.42;19.17;100229.63;5415846;26;20333;-44
2024/04/12 08:24:53;;;;;;;9.05;2.70;;;;;;;33.84;18.43;100235.53;5415456;26;20019;-44
2024/04/12 08:27:24;;;;;;;6.45;2.45;;;;;;;34.11;17.69;100242.59;5417347;26;19999;-44
2024/04/12 08:29:53;;;;;;;8.25;2.30;;;;;;;34.40;17.93;100236.50;5417018;26;20000;-45
2024/04/12 08:32:27;;;;;;;7.75;2.70;;;;;;;34.33;18.03;100228.03;5417340;26;20076;-44
2024/04/12 08:34:56;;;;;;;8.25;2.30;;;;;;;33.95;18.14;100228.66;5417289;26;20003;-44
2024/04/12 08:37:30;;;;;;;6.93;2.70;;;;;;;33.53;17.94;100227.44;5417251;26;20088;-44
2024/04/12 08:39:57;;;;;;;8.70;2.60;;;;;;;32.88;18.38;100223.47;5415773;26;20003;-44
2024/04/12 08:42:29;;;;;;;7.57;2.75;;;;;;;32.69;19.17;100229.13;5417177;26;20003;-44
2024/04/12 08:44:59;;;;;;;11.07;2.47;;;;;;;31.95;19.91;100236.50;5417291;26;20020;-44
2024/04/12 08:50:06;;;;;;;6.60;3.63;;;;;;;31.46;20.25;100229.94;5417136;26;20006;-44
2024/04/12 08:52:43;;;;;;;12.10;5.85;;;;;;;31.71;20.45;100225.09;5417099;26;20454;-45
2024/04/12 08:55:13;;;;;;;9.30;2.70;;;;;;;31.61;20.11;100232.34;5416921;26;20011;-45
2024/04/12 08:57:43;;;;;;;8.20;3.80;;;;;;;31.25;20.67;100234.94;5417006;26;20015;-44
2024/04/12 09:00:18;;;;;;;8.27;2.83;;;;;;;30.89;21.36;100230.16;5416736;26;20330;-45
2024/04/12 09:02:51;;;;;;;8.30;3.03;;;;;;;31.07;21.25;100223.06;5416862;26;20039;-47
2024/04/12 09:05:27;;;;;;;11.60;3.00;;;;;;;31.20;21.17;100222.25;5416779;26;19999;-47
2024/04/12 09:07:58;;;;;;;11.60;3.30;;;;;;;31.20;21.48;100218.75;5416761;26;20396;-46
2024/04/12 09:10:34;;;;;;;12.68;2.78;;;;;;;30.79;21.52;100231.13;5416700;26;20000;-46
2024/04/12 09:13:02;;;;;;;15.85;3.30;;;;;;;31.46;21.45;100229.94;5416711;26;20010;-44
2024/04/12 09:15:31;;;;;;;38.13;4.57;;;;;;;32.06;21.13;100230.88;5416555;26;20004;-44
2024/04/12 09:18:01;;;;;;;13.43;2.95;;;;;;;32.38;20.33;100219.00;5416547;26;20461;-44
2024/04/12 09:20:31;;;;;;;9.60;3.05;;;;;;;32.18;20.00;100226.50;5416487;26;20446;-45
2024/04/12 09:23:19;;;;;;;12.02;3.28;;;;;;;32.22;20.18;100229.41;5416377;26;20031;-44
2024/04/12 09:25:55;;;;;;;23.95;7.70;;;;;;;32.82;19.74;100220.91;5415372;26;20014;-45
2024/04/12 09:28:32;;;;;;;16.15;4.57;;;;;;;33.93;19.17;100208.31;5416578;26;20015;-45
2024/04/12 09:33:56;;;;;;;15.98;3.70;;;;;;;34.59;18.52;100217.09;5416560;26;20102;-45
2024/04/12 09:36:52;;;;;;;7.35;3.60;;;;;;;34.50;18.30;100218.22;5415312;26;20450;-44
2024/04/12 09:39:20;;;;;;;7.22;3.03;;;;;;;35.26;17.32;100216.75;5416358;26;19999;-45
2024/04/12 09:41:53;;;;;;;12.07;3.58;;;;;;;35.75;17.44;100214.38;5416073;26;20014;-47
2024/04/12 09:44:38;;;;;;;11.10;3.72;;;;;;;36.14;17.36;100207.66;5416336;26;20076;-48
2024/04/12 10:37:23;;;;;;;7.28;2.30;;;;;;;36.21;16.17;100182.53;5415673;26;20023;-47
2024/04/12 10:39:55;;;;;;;5.88;2.50;;;;;;;36.31;16.74;100178.56;5415673;26;20022;-47
2024/04/12 10:42:31;;;;;;;6.78;2.40;;;;;;;36.15;16.69;100172.94;5415492;26;20518;-47
2024/04/12 10:45:01;;;;;;;4.13;1.80;;;;;;;36.18;16.63;100172.25;5415499;26;20008;-47
2024/04/12 10:47:28;;;;;;;3.92;2.08;;;;;;;36.53;16.66;100182.84;5415610;26;20016;-47
2024/04/12 10:49:56;;;;;;;7.65;2.53;;;;;;;36.98;16.41;100177.31;5417183;26;20013;-47
2024/04/12 10:52:30;;;;;;;7.93;2.38;;;;;;;37.35;15.51;100165.59;5418932;26;20000;-48
2024/04/12 10:55:00;;;;;;;6.47;2.20;;;;;;;37.17;16.62;100171.31;5418970;26;20350;-47
2024/04/12 10:57:29;;;;;;;5.18;2.40;;;;;;;37.12;16.10;100163.31;5418941;26;20438;-48
2024/04/12 11:00:00;;;;;;;9.40;2.28;;;;;;;37.06;16.19;100166.63;5418791;26;20003;-47
2024/04/12 11:02:27;;;;;;;6.65;2.63;;;;;;;36.92;16.25;100156.78;5419004;26;20003;-47
2024/04/12 11:05:05;;;;;;;8.07;2.38;;;;;;;36.74;16.75;100158.16;5418847;26;20018;-47
2024/04/12 11:07:32;;;;;;;9.38;2.45;;;;;;;36.46;16.74;100155.25;5418830;26;20017;-47
2024/04/12 11:09:57;;;;;;;7.43;2.30;;;;;;;36.26;16.59;100152.25;5416945;26;20020;-48
2024/04/12 11:12:39;;;;;;;8.45;2.17;;;;;;;35.96;17.55;100143.31;5418741;26;20007;-47
2024/04/12 11:31:59;;;;;;;23.58;11.63;;;;;;;36.19;17.22;100121.94;5418155;26;20018;-47
2024/04/12 11:34:30;;;;;;;9.77;2.22;;;;;;;36.00;17.02;100117.75;5416601;26;20014;-47
2024/04/12 11:37:05;;;;;;;10.23;3.03;;;;;;;36.03;16.87;100116.25;5418309;26;20014;-47
2024/04/12 11:39:35;;;;;;;14.13;2.67;;;;;;;36.11;17.11;100111.84;5418477;26;20010;-47
2024/04/12 11:42:03;;;;;;;9.00;2.25;;;;;;;36.26;17.03;100111.25;5418286;26;19996;-47
2024/04/12 11:44:30;;;;;;;29.55;3.83;;;;;;;36.19;16.81;100109.06;5418323;26;20524;-47
2024/04/12 11:46:56;;;;;;;11.80;2.38;;;;;;;35.99;17.27;100099.72;5418124;26;20000;-48
2024/04/12 11:49:27;;;;;;;7.57;2.30;;;;;;;35.97;17.73;100098.47;5418030;26;20011;-47
2024/04/12 11:51:57;;;;;;;40.42;4.82;;;;;;;36.05;17.55;100107.72;5418111;26;20018;-47
2024/04/12 11:54:29;;;;;;;13.57;2.22;;;;;;;35.77;17.46;100105.59;5418135;26;20007;-47
2024/04/12 11:57:05;;;;;;;13.50;2.72;;;;;;;35.23;17.44;100102.75;5416279;26;20000;-47
2024/04/12 11:59:32;;;;;;;32.33;3.50;;;;;;;34.79;18.73;100106.53;5417463;26;20011;-47
2024/04/12 12:02:01;;;;;;;20.75;3.17;;;;;;;35.07;18.30;100097.84;5417925;26;19999;-48
2024/04/12 12:04:34;;;;;;;7.30;2.50;;;;;;;35.16;17.70;100106.03;5416383;26;20017;-47
2024/04/12 12:07:04;;;;;;;7.40;2.17;;;;;;;34.97;17.89;100100.97;5418025;26;20019;-47
2024/04/12 12:09:36;;;;;;;6.78;2.20;;;;;;;35.44;17.86;100098.13;5417923;26;19999;-47
2024/04/12 12:12:12;;;;;;;10.23;2.10;;;;;;;35.58;17.93;100095.13;5417828;26;20011;-47
2024/04/12 12:14:43;;;;;;;3.60;1.52;;;;;;;35.57;18.07;100102.50;5417975;26;20004;-47
2024/04/12 12:17:18;;;;;;;6.70;2.10;;;;;;;35.31;18.29;100099.16;5417969;26;20611;-47
2024/04/12 12:19:50;;;;;;;34.80;4.57;;;;;;;35.04;18.48;100095.00;5416047;26;20000;-47
2024/04/12 12:22:18;;;;;;;30.13;3.72;;;;;;;34.79;18.93;100101.06;5416125;26;20003;-48
2024/04/12 12:24:44;;;;;;;97.82;8.75;;;;;;;34.59;19.17;100094.38;5417737;26;20040;-47
2024/04/12 12:27:11;;;;;;;7.63;2.97;;;;;;;34.69;19.23;100087.81;5417637;26;20003;-47
2024/04/12 12:29:37;;;;;;;5.32;2.20;;;;;;;35.04;18.84;100082.16;5415765;26;19999;-47
2024/04/12 12:32:04;;;;;;;8.43;1.98;;;;;;;35.19;18.78;100080.78;5417087;26;20004;-47
2024/04/12 12:34:33;;;;;;;41.50;4.97;;;;;;;35.36;18.73;100079.88;5417231;26;20077;-47
2024/04/12 12:37:04;;;;;;;45.97;4.25;;;;;;;35.26;19.13;100074.81;5417207;26;19999;-47
2024/04/12 12:39:32;;;;;;;6.20;2.00;;;;;;;34.76;19.30;100077.16;5417262;26;20039;-47
2024/04/12 12:42:01;;;;;;;8.95;2.13;;;;;;;34.85;19.61;100068.91;5417122;26;20003;-45
2024/04/12 12:44:28;;;;;;;5.80;1.90;;;;;;;34.92;19.11;100062.97;5417075;26;20015;-45
2024/04/12 12:47:07;;;;;;;16.15;2.17;;;;;;;34.27;19.95;100065.81;5417021;26;20088;-45
2024/04/12 12:49:40;;;;;;;5.47;2.70;;;;;;;34.12;19.43;100063.56;5416979;26;20003;-44
2024/04/12 12:52:12;;;;;;;5.47;2.15;;;;;;;34.09;19.26;100066.91;5417024;26;20450;-44
2024/04/12 12:54:41;;;;;;;8.05;2.30;;;;;;;33.60;19.56;100062.47;5417147;26;20014;-45